sensor_id;sensor_type;location;lat;lon;timestamp;P1;durP1;ratioP1;P2;durP2;ratioP2
36555;SDS011;40859;50.560;7.268;2022-11-20T00:01:24;5.87;;;3.50;;
36555;SDS011;40859;50.560;7.268;2022-11-20T00:03:52;5.15;;;3.12;;
36555;SDS011;40859;50.560;7.268;2022-11-20T00:06:19;7.12;;;3.78;;
36555;SDS011;40859;50.560;7.268;2022-11-20T00:08:46;10.43;;;3.97;;
36555;SDS011;40859;50.560;7.268;2022-11-20T00:11:14;5.03;;;3.15;;
36555;SDS011;40859;50.560;7.268;2022-11-20T00:13:42;6.43;;;3.00;;
36555;SDS011;40859;50.560;7.268;2022-11-20T00:16:09;6.15;;;3.03;;
36555;SDS011;40859;50.560;7.268;2022-11-20T00:18:39;8.18;;;3.33;;
36555;SDS011;40859;50.560;7.268;2022-11-20T00:21:09;7.37;;;2.95;;
36555;SDS011;40859;50.560;7.268;2022-11-20T00:23:39;5.87;;;3.58;;
36555;SDS011;40859;50.560;7.268;2022-11-20T00:26:08;9.13;;;3.85;;
36555;SDS011;40859;50.560;7.268;2022-11-20T00:28:36;5.40;;;3.40;;
36555;SDS011;40859;50.560;7.268;2022-11-20T00:31:12;5.70;;;3.10;;
36555;SDS011;40859;50.560;7.268;2022-11-20T00:33:40;4.87;;;3.30;;
36555;SDS011;40859;50.560;7.268;2022-11-20T00:36:08;3.85;;;3.00;;
36555;SDS011;40859;50.560;7.268;2022-11-20T00:38:37;5.85;;;3.50;;
36555;SDS011;40859;50.560;7.268;2022-11-20T00:41:05;5.45;;;3.22;;
36555;SDS011;40859;50.560;7.268;2022-11-20T00:43:32;5.87;;;3.40;;
36555;SDS011;40859;50.560;7.268;2022-11-20T00:45:59;4.05;;;3.00;;
36555;SDS011;40859;50.560;7.268;2022-11-20T00:48:30;3.70;;;2.65;;
36555;SDS011;40859;50.560;7.268;2022-11-20T00:50:57;4.82;;;3.08;;
36555;SDS011;40859;50.560;7.268;2022-11-20T00:53:23;6.32;;;3.42;;
36555;SDS011;40859;50.560;7.268;2022-11-20T00:58:36;5.28;;;2.53;;
36555;SDS011;40859;50.560;7.268;2022-11-20T01:01:12;6.50;;;3.42;;
36555;SDS011;40859;50.560;7.268;2022-11-20T01:03:41;5.47;;;2.97;;
36555;SDS011;40859;50.560;7.268;2022-11-20T01:06:15;4.43;;;3.15;;
36555;SDS011;40859;50.560;7.268;2022-11-20T01:08:43;3.12;;;2.72;;
36555;SDS011;40859;50.560;7.268;2022-11-20T01:11:14;5.05;;;3.37;;
36555;SDS011;40859;50.560;7.268;2022-11-20T01:13:42;4.93;;;3.22;;
36555;SDS011;40859;50.560;7.268;2022-11-20T01:16:16;6.00;;;3.37;;
36555;SDS011;40859;50.560;7.268;2022-11-20T01:21:12;6.55;;;3.87;;
36555;SDS011;40859;50.560;7.268;2022-11-20T01:23:41;6.97;;;3.17;;
36555;SDS011;40859;50.560;7.268;2022-11-20T01:26:10;5.18;;;3.03;;
36555;SDS011;40859;50.560;7.268;2022-11-20T01:28:40;4.57;;;2.78;;
36555;SDS011;40859;50.560;7.268;2022-11-20T01:31:10;4.20;;;3.35;;
36555;SDS011;40859;50.560;7.268;2022-11-20T01:33:38;5.25;;;2.95;;
36555;SDS011;40859;50.560;7.268;2022-11-20T01:36:06;4.85;;;3.05;;
36555;SDS011;40859;50.560;7.268;2022-11-20T01:38:33;4.45;;;3.28;;
36555;SDS011;40859;50.560;7.268;2022-11-20T01:41:00;6.15;;;3.37;;
36555;SDS011;40859;50.560;7.268;2022-11-20T01:43:26;5.30;;;3.03;;
36555;SDS011;40859;50.560;7.268;2022-11-20T01:46:12;3.72;;;2.70;;
36555;SDS011;40859;50.560;7.268;2022-11-20T01:49:02;5.95;;;3.20;;
36555;SDS011;40859;50.560;7.268;2022-11-20T01:51:43;7.22;;;3.85;;
36555;SDS011;40859;50.560;7.268;2022-11-20T01:54:17;6.82;;;3.22;;
36555;SDS011;40859;50.560;7.268;2022-11-20T01:57:01;3.90;;;2.92;;
36555;SDS011;40859;50.560;7.268;2022-11-20T01:59:30;4.82;;;3.17;;
36555;SDS011;40859;50.560;7.268;2022-11-20T02:01:56;4.30;;;3.17;;
36555;SDS011;40859;50.560;7.268;2022-11-20T02:04:23;4.93;;;3.40;;
36555;SDS011;40859;50.560;7.268;2022-11-20T02:06:51;4.53;;;3.10;;
36555;SDS011;40859;50.560;7.268;2022-11-20T02:09:25;4.87;;;3.05;;
36555;SDS011;40859;50.560;7.268;2022-11-20T02:11:51;3.85;;;2.85;;
36555;SDS011;40859;50.560;7.268;2022-11-20T02:14:18;3.65;;;2.92;;
36555;SDS011;40859;50.560;7.268;2022-11-20T02:16:45;3.17;;;2.60;;
36555;SDS011;40859;50.560;7.268;2022-11-20T02:19:17;3.92;;;2.80;;
36555;SDS011;40859;50.560;7.268;2022-11-20T02:24:43;6.05;;;3.10;;
36555;SDS011;40859;50.560;7.268;2022-11-20T02:27:13;4.87;;;3.20;;
36555;SDS011;40859;50.560;7.268;2022-11-20T02:29:54;3.87;;;3.12;;
36555;SDS011;40859;50.560;7.268;2022-11-20T02:32:41;4.15;;;2.58;;
36555;SDS011;40859;50.560;7.268;2022-11-20T02:35:52;4.10;;;2.50;;
36555;SDS011;40859;50.560;7.268;2022-11-20T02:38:18;6.32;;;2.75;;
36555;SDS011;40859;50.560;7.268;2022-11-20T02:40:45;4.50;;;2.92;;
36555;SDS011;40859;50.560;7.268;2022-11-20T02:43:11;4.43;;;2.80;;
36555;SDS011;40859;50.560;7.268;2022-11-20T02:45:37;5.07;;;2.80;;
36555;SDS011;40859;50.560;7.268;2022-11-20T02:48:03;7.28;;;3.78;;
36555;SDS011;40859;50.560;7.268;2022-11-20T02:50:32;2.92;;;2.45;;
36555;SDS011;40859;50.560;7.268;2022-11-20T02:52:58;5.35;;;3.17;;
36555;SDS011;40859;50.560;7.268;2022-11-20T02:55:23;4.15;;;2.83;;
36555;SDS011;40859;50.560;7.268;2022-11-20T02:57:49;4.12;;;2.85;;
36555;SDS011;40859;50.560;7.268;2022-11-20T03:00:15;4.37;;;2.92;;
36555;SDS011;40859;50.560;7.268;2022-11-20T03:02:41;4.57;;;3.05;;
36555;SDS011;40859;50.560;7.268;2022-11-20T03:05:08;4.05;;;2.87;;
36555;SDS011;40859;50.560;7.268;2022-11-20T03:07:34;5.05;;;3.83;;
36555;SDS011;40859;50.560;7.268;2022-11-20T03:10:00;4.15;;;2.90;;
36555;SDS011;40859;50.560;7.268;2022-11-20T03:12:27;4.65;;;2.97;;
36555;SDS011;40859;50.560;7.268;2022-11-20T03:14:52;4.37;;;3.05;;
36555;SDS011;40859;50.560;7.268;2022-11-20T03:17:18;3.58;;;2.40;;
36555;SDS011;40859;50.560;7.268;2022-11-20T03:19:44;4.40;;;2.92;;
36555;SDS011;40859;50.560;7.268;2022-11-20T03:22:10;4.47;;;3.28;;
36555;SDS011;40859;50.560;7.268;2022-11-20T03:24:36;5.65;;;2.45;;
36555;SDS011;40859;50.560;7.268;2022-11-20T03:27:05;4.80;;;3.25;;
36555;SDS011;40859;50.560;7.268;2022-11-20T03:29:31;3.60;;;2.72;;
36555;SDS011;40859;50.560;7.268;2022-11-20T03:31:57;5.32;;;3.33;;
36555;SDS011;40859;50.560;7.268;2022-11-20T03:34:23;4.85;;;3.20;;
36555;SDS011;40859;50.560;7.268;2022-11-20T03:36:49;4.65;;;3.22;;
36555;SDS011;40859;50.560;7.268;2022-11-20T03:39:15;4.68;;;2.97;;
36555;SDS011;40859;50.560;7.268;2022-11-20T03:41:41;4.28;;;2.95;;
36555;SDS011;40859;50.560;7.268;2022-11-20T03:44:09;3.80;;;3.28;;
36555;SDS011;40859;50.560;7.268;2022-11-20T03:46:35;5.22;;;3.17;;
36555;SDS011;40859;50.560;7.268;2022-11-20T03:49:01;4.43;;;3.00;;
36555;SDS011;40859;50.560;7.268;2022-11-20T03:51:30;4.53;;;3.08;;
36555;SDS011;40859;50.560;7.268;2022-11-20T03:54:02;6.00;;;3.12;;
36555;SDS011;40859;50.560;7.268;2022-11-20T03:56:30;4.32;;;3.05;;
36555;SDS011;40859;50.560;7.268;2022-11-20T03:58:58;4.60;;;3.33;;
36555;SDS011;40859;50.560;7.268;2022-11-20T04:01:25;5.82;;;3.78;;
36555;SDS011;40859;50.560;7.268;2022-11-20T04:03:56;4.82;;;3.25;;
36555;SDS011;40859;50.560;7.268;2022-11-20T04:06:24;4.47;;;2.87;;
36555;SDS011;40859;50.560;7.268;2022-11-20T04:08:53;4.72;;;2.95;;
36555;SDS011;40859;50.560;7.268;2022-11-20T04:11:24;6.05;;;3.22;;
36555;SDS011;40859;50.560;7.268;2022-11-20T04:13:53;4.85;;;2.80;;
36555;SDS011;40859;50.560;7.268;2022-11-20T04:16:21;3.97;;;3.00;;
36555;SDS011;40859;50.560;7.268;2022-11-20T04:18:52;4.15;;;3.35;;
36555;SDS011;40859;50.560;7.268;2022-11-20T04:21:19;5.18;;;3.58;;
36555;SDS011;40859;50.560;7.268;2022-11-20T04:23:46;3.15;;;2.70;;
36555;SDS011;40859;50.560;7.268;2022-11-20T04:26:12;5.90;;;3.33;;
36555;SDS011;40859;50.560;7.268;2022-11-20T04:28:39;5.53;;;2.83;;
36555;SDS011;40859;50.560;7.268;2022-11-20T04:31:06;5.22;;;3.30;;
36555;SDS011;40859;50.560;7.268;2022-11-20T04:33:42;4.80;;;2.92;;
36555;SDS011;40859;50.560;7.268;2022-11-20T04:36:16;3.55;;;2.62;;
36555;SDS011;40859;50.560;7.268;2022-11-20T04:38:45;6.35;;;3.47;;
36555;SDS011;40859;50.560;7.268;2022-11-20T04:41:16;4.87;;;3.00;;
36555;SDS011;40859;50.560;7.268;2022-11-20T04:43:47;5.03;;;3.58;;
36555;SDS011;40859;50.560;7.268;2022-11-20T04:46:15;5.25;;;2.92;;
36555;SDS011;40859;50.560;7.268;2022-11-20T04:48:42;3.28;;;2.85;;
36555;SDS011;40859;50.560;7.268;2022-11-20T04:51:08;6.12;;;3.20;;
36555;SDS011;40859;50.560;7.268;2022-11-20T04:53:34;5.72;;;2.58;;
36555;SDS011;40859;50.560;7.268;2022-11-20T04:56:01;5.15;;;3.42;;
36555;SDS011;40859;50.560;7.268;2022-11-20T04:58:28;4.47;;;3.28;;
36555;SDS011;40859;50.560;7.268;2022-11-20T05:01:00;4.47;;;3.22;;
36555;SDS011;40859;50.560;7.268;2022-11-20T05:03:30;4.95;;;2.90;;
36555;SDS011;40859;50.560;7.268;2022-11-20T05:05:59;4.85;;;3.28;;
36555;SDS011;40859;50.560;7.268;2022-11-20T05:08:26;5.12;;;3.37;;
36555;SDS011;40859;50.560;7.268;2022-11-20T05:10:52;3.85;;;2.72;;
36555;SDS011;40859;50.560;7.268;2022-11-20T05:13:18;4.00;;;2.75;;
36555;SDS011;40859;50.560;7.268;2022-11-20T05:15:44;5.15;;;3.58;;
36555;SDS011;40859;50.560;7.268;2022-11-20T05:18:10;4.40;;;2.95;;
36555;SDS011;40859;50.560;7.268;2022-11-20T05:20:36;4.82;;;3.33;;
36555;SDS011;40859;50.560;7.268;2022-11-20T05:23:02;4.30;;;2.70;;
36555;SDS011;40859;50.560;7.268;2022-11-20T05:25:28;3.72;;;2.80;;
36555;SDS011;40859;50.560;7.268;2022-11-20T05:27:54;6.03;;;3.95;;
36555;SDS011;40859;50.560;7.268;2022-11-20T05:30:20;5.62;;;3.67;;
36555;SDS011;40859;50.560;7.268;2022-11-20T05:32:46;4.07;;;3.15;;
36555;SDS011;40859;50.560;7.268;2022-11-20T05:35:12;4.95;;;2.90;;
36555;SDS011;40859;50.560;7.268;2022-11-20T05:37:38;5.07;;;3.15;;
36555;SDS011;40859;50.560;7.268;2022-11-20T05:40:04;5.57;;;3.40;;
36555;SDS011;40859;50.560;7.268;2022-11-20T05:42:31;6.28;;;3.70;;
36555;SDS011;40859;50.560;7.268;2022-11-20T05:45:00;4.32;;;3.20;;
36555;SDS011;40859;50.560;7.268;2022-11-20T05:47:27;4.12;;;2.85;;
36555;SDS011;40859;50.560;7.268;2022-11-20T05:49:56;6.10;;;3.30;;
36555;SDS011;40859;50.560;7.268;2022-11-20T05:52:22;3.62;;;2.83;;
36555;SDS011;40859;50.560;7.268;2022-11-20T05:54:48;7.22;;;4.05;;
36555;SDS011;40859;50.560;7.268;2022-11-20T05:57:15;4.97;;;3.08;;
36555;SDS011;40859;50.560;7.268;2022-11-20T05:59:41;6.82;;;3.70;;
36555;SDS011;40859;50.560;7.268;2022-11-20T06:02:08;5.25;;;3.65;;
36555;SDS011;40859;50.560;7.268;2022-11-20T06:04:33;5.20;;;2.95;;
36555;SDS011;40859;50.560;7.268;2022-11-20T06:06:59;4.75;;;3.20;;
36555;SDS011;40859;50.560;7.268;2022-11-20T06:09:25;6.40;;;3.80;;
36555;SDS011;40859;50.560;7.268;2022-11-20T06:11:51;4.75;;;3.12;;
36555;SDS011;40859;50.560;7.268;2022-11-20T06:14:17;3.72;;;2.87;;
36555;SDS011;40859;50.560;7.268;2022-11-20T06:16:43;7.03;;;3.47;;
36555;SDS011;40859;50.560;7.268;2022-11-20T06:19:09;4.47;;;3.30;;
36555;SDS011;40859;50.560;7.268;2022-11-20T06:21:35;5.50;;;3.40;;
36555;SDS011;40859;50.560;7.268;2022-11-20T06:24:01;5.97;;;3.87;;
36555;SDS011;40859;50.560;7.268;2022-11-20T06:26:27;4.43;;;3.22;;
36555;SDS011;40859;50.560;7.268;2022-11-20T06:28:55;5.75;;;3.62;;
36555;SDS011;40859;50.560;7.268;2022-11-20T06:31:22;5.70;;;3.30;;
36555;SDS011;40859;50.560;7.268;2022-11-20T06:33:49;22.10;;;11.12;;
36555;SDS011;40859;50.560;7.268;2022-11-20T06:36:16;24.80;;;15.20;;
36555;SDS011;40859;50.560;7.268;2022-11-20T06:38:44;26.27;;;14.43;;
36555;SDS011;40859;50.560;7.268;2022-11-20T06:41:17;13.88;;;7.37;;
36555;SDS011;40859;50.560;7.268;2022-11-20T06:43:45;9.45;;;5.53;;
36555;SDS011;40859;50.560;7.268;2022-11-20T06:46:12;8.32;;;5.12;;
36555;SDS011;40859;50.560;7.268;2022-11-20T06:48:39;8.07;;;4.80;;
36555;SDS011;40859;50.560;7.268;2022-11-20T06:51:06;6.45;;;3.87;;
36555;SDS011;40859;50.560;7.268;2022-11-20T06:53:32;9.32;;;4.65;;
36555;SDS011;40859;50.560;7.268;2022-11-20T06:55:59;6.28;;;3.87;;
36555;SDS011;40859;50.560;7.268;2022-11-20T06:58:29;8.88;;;4.40;;
36555;SDS011;40859;50.560;7.268;2022-11-20T07:00:59;10.88;;;4.05;;
36555;SDS011;40859;50.560;7.268;2022-11-20T07:03:28;12.60;;;4.72;;
36555;SDS011;40859;50.560;7.268;2022-11-20T07:05:56;10.43;;;3.90;;
36555;SDS011;40859;50.560;7.268;2022-11-20T07:08:23;8.95;;;4.20;;
36555;SDS011;40859;50.560;7.268;2022-11-20T07:10:49;10.13;;;4.68;;
36555;SDS011;40859;50.560;7.268;2022-11-20T07:13:16;10.35;;;4.32;;
36555;SDS011;40859;50.560;7.268;2022-11-20T07:15:42;9.85;;;4.68;;
36555;SDS011;40859;50.560;7.268;2022-11-20T07:18:08;16.10;;;4.62;;
36555;SDS011;40859;50.560;7.268;2022-11-20T07:20:35;12.32;;;5.00;;
36555;SDS011;40859;50.560;7.268;2022-11-20T07:23:01;11.50;;;4.60;;
36555;SDS011;40859;50.560;7.268;2022-11-20T07:25:28;12.20;;;4.35;;
36555;SDS011;40859;50.560;7.268;2022-11-20T07:27:59;10.93;;;4.80;;
36555;SDS011;40859;50.560;7.268;2022-11-20T07:30:28;16.02;;;4.53;;
36555;SDS011;40859;50.560;7.268;2022-11-20T07:32:55;25.35;;;5.00;;
36555;SDS011;40859;50.560;7.268;2022-11-20T07:35:22;11.05;;;4.18;;
36555;SDS011;40859;50.560;7.268;2022-11-20T07:37:49;13.50;;;4.97;;
36555;SDS011;40859;50.560;7.268;2022-11-20T07:40:15;8.90;;;4.40;;
36555;SDS011;40859;50.560;7.268;2022-11-20T07:42:52;17.20;;;5.55;;
36555;SDS011;40859;50.560;7.268;2022-11-20T07:45:20;28.35;;;5.53;;
36555;SDS011;40859;50.560;7.268;2022-11-20T07:47:47;23.65;;;5.47;;
36555;SDS011;40859;50.560;7.268;2022-11-20T07:50:15;17.30;;;5.45;;
36555;SDS011;40859;50.560;7.268;2022-11-20T07:52:41;12.32;;;5.05;;
36555;SDS011;40859;50.560;7.268;2022-11-20T07:55:07;19.80;;;5.57;;
36555;SDS011;40859;50.560;7.268;2022-11-20T07:57:34;12.43;;;5.32;;
36555;SDS011;40859;50.560;7.268;2022-11-20T08:00:03;17.83;;;5.55;;
36555;SDS011;40859;50.560;7.268;2022-11-20T08:02:32;29.25;;;5.28;;
36555;SDS011;40859;50.560;7.268;2022-11-20T08:04:58;15.57;;;5.35;;
36555;SDS011;40859;50.560;7.268;2022-11-20T08:07:24;16.62;;;4.90;;
36555;SDS011;40859;50.560;7.268;2022-11-20T08:09:51;12.07;;;4.97;;
36555;SDS011;40859;50.560;7.268;2022-11-20T08:12:20;13.07;;;5.22;;
36555;SDS011;40859;50.560;7.268;2022-11-20T08:15:04;14.65;;;5.65;;
36555;SDS011;40859;50.560;7.268;2022-11-20T08:17:31;15.15;;;5.00;;
36555;SDS011;40859;50.560;7.268;2022-11-20T08:19:57;10.68;;;5.20;;
36555;SDS011;40859;50.560;7.268;2022-11-20T08:22:24;16.02;;;5.85;;
36555;SDS011;40859;50.560;7.268;2022-11-20T08:24:50;10.32;;;5.15;;
36555;SDS011;40859;50.560;7.268;2022-11-20T08:27:16;15.60;;;5.47;;
36555;SDS011;40859;50.560;7.268;2022-11-20T08:29:43;11.75;;;5.30;;
36555;SDS011;40859;50.560;7.268;2022-11-20T08:32:09;16.23;;;4.70;;
36555;SDS011;40859;50.560;7.268;2022-11-20T08:34:35;14.02;;;5.70;;
36555;SDS011;40859;50.560;7.268;2022-11-20T22:26:21;35.05;;;8.77;;
36555;SDS011;40859;50.560;7.268;2022-11-20T22:28:49;37.90;;;9.10;;
36555;SDS011;40859;50.560;7.268;2022-11-20T22:31:17;38.90;;;10.45;;
36555;SDS011;40859;50.560;7.268;2022-11-20T22:33:44;22.58;;;7.57;;
36555;SDS011;40859;50.560;7.268;2022-11-20T22:36:11;38.38;;;8.68;;
36555;SDS011;40859;50.560;7.268;2022-11-20T22:38:38;29.60;;;9.30;;
36555;SDS011;40859;50.560;7.268;2022-11-20T22:41:05;21.67;;;7.68;;
36555;SDS011;40859;50.560;7.268;2022-11-20T22:43:32;31.27;;;8.05;;
36555;SDS011;40859;50.560;7.268;2022-11-20T22:46:00;32.28;;;8.77;;
36555;SDS011;40859;50.560;7.268;2022-11-20T22:48:27;18.37;;;7.70;;
36555;SDS011;40859;50.560;7.268;2022-11-20T22:50:58;23.02;;;7.53;;
36555;SDS011;40859;50.560;7.268;2022-11-20T22:53:25;18.65;;;7.40;;
36555;SDS011;40859;50.560;7.268;2022-11-20T22:55:51;32.25;;;7.60;;
36555;SDS011;40859;50.560;7.268;2022-11-20T22:58:17;20.08;;;7.60;;
36555;SDS011;40859;50.560;7.268;2022-11-20T23:00:42;22.40;;;8.23;;
36555;SDS011;40859;50.560;7.268;2022-11-20T23:03:08;25.70;;;7.40;;
36555;SDS011;40859;50.560;7.268;2022-11-20T23:05:34;24.63;;;6.82;;
36555;SDS011;40859;50.560;7.268;2022-11-20T23:08:00;23.35;;;7.60;;
36555;SDS011;40859;50.560;7.268;2022-11-20T23:10:26;17.15;;;6.43;;
36555;SDS011;40859;50.560;7.268;2022-11-20T23:12:52;19.40;;;6.80;;
36555;SDS011;40859;50.560;7.268;2022-11-20T23:15:18;17.90;;;6.72;;
36555;SDS011;40859;50.560;7.268;2022-11-20T23:17:44;17.95;;;6.62;;
36555;SDS011;40859;50.560;7.268;2022-11-20T23:20:11;13.88;;;5.78;;
36555;SDS011;40859;50.560;7.268;2022-11-20T23:22:36;21.67;;;7.12;;
36555;SDS011;40859;50.560;7.268;2022-11-20T23:25:02;17.87;;;6.68;;
36555;SDS011;40859;50.560;7.268;2022-11-20T23:27:30;16.02;;;6.45;;
36555;SDS011;40859;50.560;7.268;2022-11-20T23:29:55;14.48;;;7.05;;
36555;SDS011;40859;50.560;7.268;2022-11-20T23:32:23;15.45;;;5.32;;
36555;SDS011;40859;50.560;7.268;2022-11-20T23:34:49;16.10;;;5.62;;
36555;SDS011;40859;50.560;7.268;2022-11-20T23:37:15;14.87;;;6.40;;
36555;SDS011;40859;50.560;7.268;2022-11-20T23:39:41;23.35;;;5.78;;
36555;SDS011;40859;50.560;7.268;2022-11-20T23:42:07;18.70;;;5.43;;
36555;SDS011;40859;50.560;7.268;2022-11-20T23:44:33;11.55;;;4.43;;
36555;SDS011;40859;50.560;7.268;2022-11-20T23:46:59;15.38;;;4.50;;
36555;SDS011;40859;50.560;7.268;2022-11-20T23:49:25;12.40;;;5.28;;
36555;SDS011;40859;50.560;7.268;2022-11-20T23:51:51;21.77;;;5.65;;
36555;SDS011;40859;50.560;7.268;2022-11-20T23:54:17;20.95;;;5.53;;
36555;SDS011;40859;50.560;7.268;2022-11-20T23:56:43;9.48;;;4.37;;
36555;SDS011;40859;50.560;7.268;2022-11-20T23:59:09;14.90;;;4.72;;
